Time;durP1;ratioP1;P1;durP2;ratioP2;P2;SDS_P1;SDS_P2;PMS_P1;PMS_P2;Temp;Humidity;BMP_temperature;BMP_pressure;BME280_temperature;BME280_humidity;BME280_pressure;Samples;Min_cycle;Max_cycle;Signal;HPM_P1;HPM_P2
2021/03/05 00:00:59;;;;;;;17.33;3.95;;;;;;;;;;5015745;28;20030;-81
2021/03/05 00:03:24;;;;;;;17.33;3.95;;;;;;;;;;5017304;28;20024;-81
2021/03/05 00:05:49;;;;;;;12.82;4.40;;;;;;;;;;5006954;28;20485;-81
2021/03/05 00:08:16;;;;;;;21.47;5.73;;;;;;;;;;4992815;28;20013;-82
2021/03/05 00:10:42;;;;;;;12.88;3.75;;;;;;;;;;4988502;28;20362;-82
2021/03/05 00:13:08;;;;;;;18.55;4.47;;;;;;;;;;4987890;28;20089;-82
2021/03/05 00:15:34;;;;;;;14.57;4.05;;;;;;;;;;5008402;28;20100;-81
2021/03/05 00:17:59;;;;;;;13.93;4.72;;;;;;;;;;4991263;28;20018;-81
2021/03/05 00:20:25;;;;;;;16.00;5.05;;;;;;;;;;4989278;28;20133;-81
2021/03/05 00:22:51;;;;;;;13.65;4.97;;;;;;;;;;4983056;28;20022;-80
2021/03/05 00:25:16;;;;;;;17.23;5.57;;;;;;;;;;5003161;28;20080;-79
2021/03/05 00:27:42;;;;;;;14.52;5.68;;;;;;;;;;4991114;28;20118;-80
2021/03/05 00:30:07;;;;;;;15.88;5.72;;;;;;;;;;4994506;28;20030;-80
2021/03/05 00:32:33;;;;;;;11.65;5.40;;;;;;;;;;5004350;28;20281;-80
2021/03/05 00:34:58;;;;;;;10.43;5.55;;;;;;;;;;5007732;28;20022;-81
2021/03/05 00:37:23;;;;;;;14.77;6.03;;;;;;;;;;5012624;28;20018;-81
2021/03/05 00:39:49;;;;;;;12.63;6.67;;;;;;;;;;4991326;28;20252;-81
2021/03/05 00:42:14;;;;;;;17.30;5.43;;;;;;;;;;4987916;28;20273;-81
2021/03/05 00:44:39;;;;;;;11.07;5.83;;;;;;;;;;4992103;28;20022;-81
2021/03/05 00:47:04;;;;;;;15.90;5.43;;;;;;;;;;5005200;28;20439;-81
2021/03/05 00:49:29;;;;;;;13.95;6.60;;;;;;;;;;4989090;28;20141;-80
2021/03/05 00:51:55;;;;;;;16.20;6.88;;;;;;;;;;5005980;28;20038;-80
2021/03/05 00:54:20;;;;;;;10.87;5.37;;;;;;;;;;5004771;28;20040;-80
2021/03/05 00:56:45;;;;;;;13.25;6.07;;;;;;;;;;5001637;28;20532;-81
2021/03/05 00:59:11;;;;;;;14.47;6.70;;;;;;;;;;5010767;28;20037;-80
2021/03/05 01:01:36;;;;;;;11.10;6.07;;;;;;;;;;5009162;28;20092;-80
2021/03/05 01:04:01;;;;;;;14.13;7.35;;;;;;;;;;5008191;28;20264;-81
2021/03/05 01:06:26;;;;;;;13.60;6.77;;;;;;;;;;4992297;28;20021;-81
2021/03/05 01:08:51;;;;;;;16.98;7.00;;;;;;;;;;5003009;28;20299;-81
2021/03/05 01:11:16;;;;;;;13.23;6.30;;;;;;;;;;5011775;28;20033;-81
2021/03/05 01:13:42;;;;;;;16.10;6.80;;;;;;;;;;4987444;28;20310;-81
2021/03/05 01:16:07;;;;;;;11.35;6.80;;;;;;;;;;5011161;28;20253;-82
2021/03/05 01:18:32;;;;;;;14.07;7.13;;;;;;;;;;4988563;28;20045;-82
2021/03/05 01:20:57;;;;;;;12.80;6.00;;;;;;;;;;4993692;28;20330;-82
2021/03/05 01:23:23;;;;;;;16.63;6.77;;;;;;;;;;4981965;28;20268;-82
2021/03/05 01:25:48;;;;;;;9.27;6.18;;;;;;;;;;4996820;28;20259;-81
2021/03/05 01:28:13;;;;;;;9.55;6.57;;;;;;;;;;5012366;28;20533;-81
2021/03/05 01:30:39;;;;;;;12.80;6.45;;;;;;;;;;5011717;28;20439;-81
2021/03/05 01:33:04;;;;;;;11.32;6.38;;;;;;;;;;5008701;28;20041;-81
2021/03/05 01:35:29;;;;;;;14.30;6.93;;;;;;;;;;4980749;28;20133;-81
2021/03/05 01:37:55;;;;;;;11.77;5.93;;;;;;;;;;4988201;28;20470;-81
2021/03/05 01:40:28;;;;;;;11.93;6.65;;;;;;;;;;5004521;28;20264;-81
2021/03/05 01:42:53;;;;;;;11.63;6.47;;;;;;;;;;5008715;28;20524;-81
2021/03/05 01:45:24;;;;;;;11.05;6.40;;;;;;;;;;4986028;28;20018;-80
2021/03/05 01:47:55;;;;;;;9.43;6.28;;;;;;;;;;4994683;28;20049;-80
2021/03/05 01:50:21;;;;;;;12.70;7.47;;;;;;;;;;4992282;28;20084;-80
2021/03/05 01:52:47;;;;;;;14.88;7.53;;;;;;;;;;4983601;28;20018;-80
2021/03/05 01:55:13;;;;;;;12.45;7.30;;;;;;;;;;4999442;28;20038;-80
2021/03/05 01:57:38;;;;;;;13.65;7.78;;;;;;;;;;4989766;28;20025;-79
2021/03/05 02:00:04;;;;;;;11.60;7.60;;;;;;;;;;4986019;28;20065;-79
2021/03/05 02:02:29;;;;;;;12.20;7.60;;;;;;;;;;5002501;28;20023;-79
2021/03/05 02:04:57;;;;;;;19.97;8.43;;;;;;;;;;4991020;28;20181;-79
2021/03/05 02:07:22;;;;;;;22.55;9.02;;;;;;;;;;4983863;28;20272;-79
2021/03/05 02:09:47;;;;;;;12.00;8.15;;;;;;;;;;5005304;28;20040;-78
2021/03/05 02:12:12;;;;;;;15.90;8.53;;;;;;;;;;4987285;28;20830;-78
2021/03/05 02:14:38;;;;;;;14.70;8.50;;;;;;;;;;5005356;28;20060;-79
2021/03/05 02:17:21;;;;;;;12.88;8.23;;;;;;;;;;5008501;28;20295;-79
2021/03/05 02:20:05;;;;;;;16.25;9.35;;;;;;;;;;4980099;28;20671;-79
2021/03/05 02:22:37;;;;;;;13.27;7.75;;;;;;;;;;4989278;28;20429;-78
2021/03/05 02:25:21;;;;;;;16.25;9.48;;;;;;;;;;5006543;28;20383;-79
2021/03/05 02:28:05;;;;;;;15.27;8.48;;;;;;;;;;5012842;28;20040;-79
2021/03/05 02:30:43;;;;;;;19.45;9.13;;;;;;;;;;5012427;28;20033;-79
2021/03/05 02:33:17;;;;;;;18.08;8.68;;;;;;;;;;5015776;28;20051;-78
2021/03/05 02:35:43;;;;;;;15.20;8.50;;;;;;;;;;5017528;28;20093;-79
2021/03/05 02:38:09;;;;;;;22.13;9.60;;;;;;;;;;4993627;28;20538;-79
2021/03/05 02:40:40;;;;;;;14.25;9.15;;;;;;;;;;4985561;28;20018;-79
2021/03/05 02:43:07;;;;;;;18.58;9.93;;;;;;;;;;4989059;28;20049;-79
2021/03/05 02:45:37;;;;;;;26.75;10.30;;;;;;;;;;5012538;28;20022;-78
2021/03/05 02:48:05;;;;;;;15.90;9.63;;;;;;;;;;4988732;28;20042;-78
2021/03/05 02:50:31;;;;;;;18.33;9.80;;;;;;;;;;5008539;28;20030;-78
2021/03/05 02:52:59;;;;;;;17.02;8.48;;;;;;;;;;5009851;28;20802;-79
2021/03/05 02:55:25;;;;;;;17.10;10.10;;;;;;;;;;5006457;28;20026;-79
2021/03/05 02:57:53;;;;;;;16.70;8.48;;;;;;;;;;5008885;28;20032;-81
2021/03/05 03:00:19;;;;;;;19.85;10.57;;;;;;;;;;5018185;28;20030;-81
2021/03/05 03:02:46;;;;;;;16.70;9.93;;;;;;;;;;4993968;28;20037;-81
2021/03/05 03:05:11;;;;;;;20.33;9.77;;;;;;;;;;5009375;28;20042;-80
2021/03/05 03:07:39;;;;;;;18.25;9.85;;;;;;;;;;5001708;28;20025;-81
2021/03/05 03:10:05;;;;;;;16.48;9.80;;;;;;;;;;4994202;28;20030;-80
2021/03/05 03:12:31;;;;;;;20.67;10.52;;;;;;;;;;5017225;28;20072;-79
2021/03/05 03:14:56;;;;;;;19.08;10.18;;;;;;;;;;5008737;28;20026;-79
2021/03/05 03:17:22;;;;;;;16.40;10.10;;;;;;;;;;5004661;28;20024;-80
2021/03/05 03:19:49;;;;;;;25.55;10.15;;;;;;;;;;5025863;28;20243;-80
2021/03/05 03:22:14;;;;;;;20.45;10.10;;;;;;;;;;5023834;28;20025;-80
2021/03/05 03:24:39;;;;;;;17.83;8.85;;;;;;;;;;5037489;28;20021;-80
2021/03/05 03:27:05;;;;;;;18.92;8.65;;;;;;;;;;5006825;28;20040;-80
2021/03/05 03:29:30;;;;;;;18.10;8.23;;;;;;;;;;5006993;28;20024;-80
2021/03/05 03:31:55;;;;;;;17.67;7.53;;;;;;;;;;5007842;28;20026;-80
2021/03/05 03:34:21;;;;;;;18.58;7.97;;;;;;;;;;5009492;28;20029;-80
2021/03/05 03:36:47;;;;;;;17.88;9.30;;;;;;;;;;5002667;28;20018;-80
2021/03/05 03:39:13;;;;;;;24.88;8.68;;;;;;;;;;5003893;28;20033;-80
2021/03/05 03:41:39;;;;;;;20.10;9.00;;;;;;;;;;5005804;28;20014;-80
2021/03/05 03:44:08;;;;;;;16.52;8.18;;;;;;;;;;4988729;28;20089;-79
2021/03/05 03:46:35;;;;;;;24.05;8.68;;;;;;;;;;4988712;28;20044;-80
2021/03/05 03:49:02;;;;;;;18.60;8.15;;;;;;;;;;5004626;28;20053;-81
2021/03/05 03:51:28;;;;;;;26.15;8.25;;;;;;;;;;4987692;28;20026;-81
2021/03/05 03:53:54;;;;;;;22.80;7.45;;;;;;;;;;5011488;28;20445;-81
2021/03/05 03:56:21;;;;;;;17.60;7.93;;;;;;;;;;4998307;28;20023;-82
2021/03/05 03:58:48;;;;;;;14.98;6.47;;;;;;;;;;4998287;28;20036;-81
2021/03/05 04:01:13;;;;;;;19.02;6.75;;;;;;;;;;5003604;28;20086;-81
2021/03/05 04:03:42;;;;;;;19.65;6.53;;;;;;;;;;4990359;28;20274;-80
2021/03/05 04:06:08;;;;;;;24.33;6.55;;;;;;;;;;5003469;28;20049;-79
2021/03/05 04:08:34;;;;;;;27.35;8.88;;;;;;;;;;5007118;28;20079;-77
2021/03/05 04:11:00;;;;;;;16.13;7.25;;;;;;;;;;5003441;28;20021;-78
2021/03/05 04:13:25;;;;;;;23.60;6.75;;;;;;;;;;5003973;28;20058;-78
2021/03/05 04:15:50;;;;;;;20.92;6.15;;;;;;;;;;5008309;28;20029;-78
2021/03/05 04:18:16;;;;;;;19.92;5.45;;;;;;;;;;4991392;28;20022;-81
2021/03/05 04:20:42;;;;;;;34.10;7.57;;;;;;;;;;5007114;28;20092;-81
2021/03/05 04:23:07;;;;;;;18.23;5.25;;;;;;;;;;5008013;28;20076;-81
2021/03/05 04:25:32;;;;;;;15.95;5.47;;;;;;;;;;5013863;28;20014;-81
2021/03/05 04:27:58;;;;;;;21.98;4.78;;;;;;;;;;5021416;28;20025;-81
2021/03/05 04:30:23;;;;;;;23.92;5.47;;;;;;;;;;5032436;28;20022;-80
2021/03/05 04:32:49;;;;;;;19.90;5.10;;;;;;;;;;5011669;28;20057;-81
2021/03/05 04:35:14;;;;;;;25.40;5.87;;;;;;;;;;5020259;28;20038;-80
2021/03/05 04:37:39;;;;;;;9.77;3.90;;;;;;;;;;4997992;28;20118;-81
2021/03/05 04:40:07;;;;;;;27.08;5.20;;;;;;;;;;5008368;28;20279;-81
2021/03/05 04:42:32;;;;;;;25.13;6.18;;;;;;;;;;5001446;28;20520;-80
2021/03/05 04:44:57;;;;;;;21.07;4.60;;;;;;;;;;5007430;28;20034;-81
2021/03/05 04:47:23;;;;;;;18.25;3.78;;;;;;;;;;4991952;28;20270;-82
2021/03/05 04:49:48;;;;;;;17.00;4.40;;;;;;;;;;5007518;28;20030;-81
2021/03/05 04:52:13;;;;;;;19.48;4.13;;;;;;;;;;4985786;28;20311;-81
2021/03/05 04:54:38;;;;;;;18.37;5.37;;;;;;;;;;5009471;28;20022;-81
2021/03/05 04:57:04;;;;;;;20.08;4.47;;;;;;;;;;4991409;28;20643;-81
2021/03/05 04:59:29;;;;;;;15.50;4.03;;;;;;;;;;4987693;28;20035;-80
2021/03/05 05:01:54;;;;;;;23.87;4.20;;;;;;;;;;4983833;28;20061;-81
2021/03/05 05:04:19;;;;;;;24.67;5.27;;;;;;;;;;5009739;28;20337;-81
2021/03/05 05:06:44;;;;;;;18.97;5.13;;;;;;;;;;4992288;28;20031;-81
2021/03/05 05:09:09;;;;;;;17.13;4.63;;;;;;;;;;5006343;28;20284;-79
2021/03/05 05:11:34;;;;;;;27.67;4.33;;;;;;;;;;5003159;28;20025;-79
2021/03/05 05:14:00;;;;;;;23.42;4.95;;;;;;;;;;5003999;28;20701;-79
2021/03/05 05:16:26;;;;;;;19.87;3.80;;;;;;;;;;4999818;28;20026;-79
2021/03/05 05:18:51;;;;;;;17.15;3.58;;;;;;;;;;4995119;28;20271;-80
2021/03/05 05:21:16;;;;;;;15.63;3.83;;;;;;;;;;4982377;28;20014;-81
2021/03/05 05:23:41;;;;;;;17.00;3.80;;;;;;;;;;4999901;28;20343;-79
2021/03/05 05:26:07;;;;;;;16.60;3.77;;;;;;;;;;5010252;28;20030;-80
2021/03/05 05:28:32;;;;;;;13.10;2.97;;;;;;;;;;4986425;28;20284;-80
2021/03/05 05:30:57;;;;;;;23.50;4.78;;;;;;;;;;5001003;28;20034;-80
2021/03/05 05:33:22;;;;;;;15.23;3.43;;;;;;;;;;5008085;28;20026;-80
2021/03/05 05:35:47;;;;;;;13.73;3.83;;;;;;;;;;5004838;28;20026;-80
2021/03/05 05:38:12;;;;;;;14.13;3.70;;;;;;;;;;5006180;28;20025;-80
2021/03/05 05:40:38;;;;;;;10.57;2.83;;;;;;;;;;4992012;28;20417;-80
2021/03/05 05:43:04;;;;;;;14.52;3.00;;;;;;;;;;5006219;28;20683;-81
2021/03/05 05:45:29;;;;;;;20.90;6.22;;;;;;;;;;4998927;28;20045;-79
2021/03/05 05:47:57;;;;;;;21.27;5.80;;;;;;;;;;5006135;28;20081;-80
2021/03/05 05:50:23;;;;;;;26.92;5.30;;;;;;;;;;5003030;28;20034;-81
2021/03/05 05:52:50;;;;;;;17.95;3.42;;;;;;;;;;4984907;28;20030;-79
2021/03/05 05:55:15;;;;;;;20.13;5.90;;;;;;;;;;4998220;28;20113;-81
2021/03/05 05:57:42;;;;;;;24.33;6.80;;;;;;;;;;4983941;28;20109;-81
2021/03/05 06:00:09;;;;;;;17.85;4.10;;;;;;;;;;4989690;28;20093;-81
2021/03/05 06:02:35;;;;;;;15.10;3.17;;;;;;;;;;5004157;28;20456;-80
2021/03/05 06:05:00;;;;;;;13.40;3.35;;;;;;;;;;4981456;28;20026;-80
2021/03/05 06:07:26;;;;;;;11.63;2.70;;;;;;;;;;4989344;28;20101;-81
2021/03/05 06:09:51;;;;;;;17.58;2.95;;;;;;;;;;5006911;28;20018;-81
2021/03/05 06:12:17;;;;;;;16.45;3.45;;;;;;;;;;4987685;28;20014;-81
2021/03/05 06:14:42;;;;;;;27.25;4.60;;;;;;;;;;4990284;28;20032;-81
2021/03/05 06:17:08;;;;;;;29.52;7.07;;;;;;;;;;4992055;28;20422;-80
2021/03/05 06:19:33;;;;;;;25.45;7.68;;;;;;;;;;4996914;28;20026;-82
2021/03/05 06:21:58;;;;;;;24.48;6.97;;;;;;;;;;5012724;28;20041;-82
2021/03/05 06:24:24;;;;;;;14.60;4.40;;;;;;;;;;5011559;28;20062;-82
2021/03/05 06:26:52;;;;;;;17.42;4.57;;;;;;;;;;4986321;28;20274;-82
2021/03/05 06:29:18;;;;;;;17.42;4.07;;;;;;;;;;5012671;28;20093;-82
2021/03/05 06:31:51;;;;;;;9.95;3.17;;;;;;;;;;5012220;28;20033;-80
2021/03/05 06:34:16;;;;;;;21.42;3.30;;;;;;;;;;5005974;28;20023;-80
2021/03/05 06:36:42;;;;;;;15.85;2.67;;;;;;;;;;5002745;28;20041;-79
2021/03/05 06:39:07;;;;;;;14.97;2.43;;;;;;;;;;5000673;28;20034;-80
2021/03/05 06:41:35;;;;;;;14.77;3.33;;;;;;;;;;5005624;28;20303;-80
2021/03/05 06:44:01;;;;;;;12.10;2.17;;;;;;;;;;5009906;28;20263;-80
2021/03/05 06:46:30;;;;;;;18.77;3.17;;;;;;;;;;4992682;28;20021;-80
2021/03/05 06:48:56;;;;;;;18.20;3.75;;;;;;;;;;5000284;28;20046;-79
2021/03/05 06:51:21;;;;;;;17.98;3.20;;;;;;;;;;5008323;28;20033;-79
2021/03/05 06:53:47;;;;;;;19.65;3.83;;;;;;;;;;5009323;28;20100;-80
2021/03/05 06:56:28;;;;;;;21.42;3.35;;;;;;;;;;4987660;28;20030;-80
2021/03/05 06:58:57;;;;;;;12.00;2.10;;;;;;;;;;5003952;28;20528;-79
2021/03/05 07:01:23;;;;;;;18.50;2.97;;;;;;;;;;5005965;28;20034;-79
2021/03/05 07:04:02;;;;;;;23.52;5.13;;;;;;;;;;4995573;28;20026;-79
2021/03/05 07:06:28;;;;;;;25.00;3.90;;;;;;;;;;5008437;28;20108;-80
2021/03/05 07:08:53;;;;;;;17.75;3.83;;;;;;;;;;4993284;28;20153;-80
2021/03/05 07:11:33;;;;;;;15.27;3.80;;;;;;;;;;5008268;28;20536;-79
2021/03/05 07:13:58;;;;;;;16.23;3.67;;;;;;;;;;5008599;28;20022;-79
2021/03/05 07:16:24;;;;;;;10.57;2.70;;;;;;;;;;5015179;28;20029;-79
2021/03/05 07:18:49;;;;;;;19.15;2.78;;;;;;;;;;4991399;28;20072;-79
2021/03/05 07:21:16;;;;;;;13.05;2.40;;;;;;;;;;5005316;28;20134;-79
2021/03/05 07:23:43;;;;;;;13.20;2.13;;;;;;;;;;5000744;28;20735;-79
2021/03/05 07:26:09;;;;;;;8.23;2.65;;;;;;;;;;4989404;28;20037;-79
2021/03/05 07:28:35;;;;;;;12.27;3.08;;;;;;;;;;4982461;28;20414;-79
2021/03/05 07:31:01;;;;;;;13.98;2.58;;;;;;;;;;4998404;28;20698;-79
2021/03/05 07:33:28;;;;;;;15.93;2.40;;;;;;;;;;4988707;28;20056;-78
2021/03/05 07:35:54;;;;;;;12.32;3.38;;;;;;;;;;4989741;28;20034;-79
2021/03/05 07:38:24;;;;;;;10.63;2.83;;;;;;;;;;5009585;28;20032;-79
2021/03/05 07:40:49;;;;;;;11.27;2.53;;;;;;;;;;4995429;28;20481;-79
2021/03/05 07:43:14;;;;;;;10.97;3.53;;;;;;;;;;5007560;28;20057;-80
2021/03/05 07:45:40;;;;;;;11.23;2.65;;;;;;;;;;5005428;28;20286;-79
2021/03/05 07:48:08;;;;;;;8.80;2.72;;;;;;;;;;5013352;28;20037;-79
2021/03/05 07:50:34;;;;;;;15.13;2.55;;;;;;;;;;5004212;28;20068;-80
2021/03/05 07:52:59;;;;;;;7.05;2.50;;;;;;;;;;5012205;28;20014;-79
2021/03/05 07:55:35;;;;;;;10.68;2.38;;;;;;;;;;4989488;28;20101;-79
2021/03/05 07:58:00;;;;;;;11.18;2.65;;;;;;;;;;5010555;28;20033;-79
2021/03/05 08:00:44;;;;;;;12.60;2.20;;;;;;;;;;5010556;28;20233;-80
2021/03/05 08:03:09;;;;;;;12.95;2.70;;;;;;;;;;5004860;28;20031;-79
2021/03/05 08:05:34;;;;;;;13.45;2.53;;;;;;;;;;5004093;28;20369;-79
2021/03/05 08:08:12;;;;;;;8.93;2.50;;;;;;;;;;5026609;28;20021;-79
2021/03/05 08:10:38;;;;;;;7.50;2.30;;;;;;;;;;5025910;28;20396;-79
2021/03/05 08:13:23;;;;;;;11.75;2.03;;;;;;;;;;5018147;28;20010;-79
2021/03/05 08:16:03;;;;;;;14.48;3.45;;;;;;;;;;5010714;28;20028;-80
2021/03/05 08:18:29;;;;;;;5.65;2.45;;;;;;;;;;4982523;28;20025;-80
2021/03/05 08:20:54;;;;;;;7.93;1.80;;;;;;;;;;5003793;28;20366;-80
2021/03/05 08:23:19;;;;;;;9.43;2.78;;;;;;;;;;5001631;28;20025;-80
2021/03/05 08:25:51;;;;;;;7.18;2.25;;;;;;;;;;5002101;28;20029;-79
2021/03/05 08:28:36;;;;;;;9.93;2.47;;;;;;;;;;4989365;28;20030;-80
2021/03/05 08:31:01;;;;;;;10.65;2.90;;;;;;;;;;4979395;28;20044;-80
2021/03/05 08:33:27;;;;;;;14.05;3.45;;;;;;;;;;4996819;28;20733;-81
2021/03/05 08:36:03;;;;;;;12.25;3.72;;;;;;;;;;5005345;28;20061;-80
2021/03/05 08:38:36;;;;;;;9.00;2.90;;;;;;;;;;4993132;28;20054;-80
2021/03/05 08:41:04;;;;;;;7.75;2.72;;;;;;;;;;5019864;28;20017;-81
2021/03/05 08:43:31;;;;;;;7.57;2.00;;;;;;;;;;5025394;28;20064;-80
2021/03/05 08:46:00;;;;;;;7.00;2.30;;;;;;;;;;5011499;28;20026;-80
2021/03/05 08:48:30;;;;;;;20.88;2.63;;;;;;;;;;4989042;28;20046;-80
2021/03/05 08:51:09;;;;;;;8.73;2.72;;;;;;;;;;5001792;28;20050;-80
2021/03/05 08:53:40;;;;;;;12.30;2.60;;;;;;;;;;5004900;28;20139;-80
2021/03/05 08:56:05;;;;;;;10.57;2.20;;;;;;;;;;5006929;28;20085;-79
2021/03/05 08:58:31;;;;;;;6.95;1.70;;;;;;;;;;4989991;28;20198;-80
2021/03/05 09:00:56;;;;;;;7.93;2.65;;;;;;;;;;5002128;28;20795;-80
2021/03/05 09:03:21;;;;;;;12.05;2.35;;;;;;;;;;4983593;28;20482;-80
2021/03/05 09:05:47;;;;;;;5.23;2.00;;;;;;;;;;5001100;28;20406;-80
2021/03/05 09:08:13;;;;;;;7.53;1.85;;;;;;;;;;5008199;28;20022;-80
2021/03/05 09:10:46;;;;;;;9.55;2.35;;;;;;;;;;5006835;28;20551;-79
2021/03/05 09:13:23;;;;;;;7.03;1.88;;;;;;;;;;5005564;28;20022;-79
2021/03/05 09:15:56;;;;;;;5.22;1.42;;;;;;;;;;5005756;28;20033;-80
2021/03/05 09:18:23;;;;;;;5.43;1.45;;;;;;;;;;5009652;28;20040;-79
2021/03/05 09:20:50;;;;;;;3.10;1.05;;;;;;;;;;5010189;28;20014;-81
2021/03/05 09:23:16;;;;;;;5.60;1.90;;;;;;;;;;5010684;28;20382;-79
2021/03/05 09:25:51;;;;;;;4.97;1.63;;;;;;;;;;5011566;28;20034;-79
2021/03/05 09:28:17;;;;;;;7.00;1.52;;;;;;;;;;5006737;28;20041;-79
2021/03/05 09:30:46;;;;;;;10.00;1.90;;;;;;;;;;5006806;28;20815;-79
2021/03/05 09:33:12;;;;;;;7.38;1.77;;;;;;;;;;5006289;28;20026;-80
2021/03/05 09:35:37;;;;;;;8.70;1.47;;;;;;;;;;5006955;28;20428;-79
2021/03/05 09:38:02;;;;;;;10.80;2.00;;;;;;;;;;4992097;28;20270;-80
2021/03/05 09:40:30;;;;;;;2.83;1.30;;;;;;;;;;4987455;28;20132;-80
2021/03/05 09:42:56;;;;;;;3.78;1.75;;;;;;;;;;4999506;28;20083;-80
2021/03/05 09:45:35;;;;;;;4.63;1.60;;;;;;;;;;5009209;28;20026;-80
2021/03/05 09:48:01;;;;;;;6.32;1.40;;;;;;;;;;4988135;28;20097;-80
2021/03/05 09:50:26;;;;;;;2.88;1.10;;;;;;;;;;5006632;28;20014;-79
2021/03/05 09:52:52;;;;;;;3.72;1.02;;;;;;;;;;5004269;28;20593;-80
2021/03/05 09:55:23;;;;;;;9.85;1.10;;;;;;;;;;5008328;28;20046;-80
2021/03/05 09:57:49;;;;;;;7.53;1.00;;;;;;;;;;5032157;28;20040;-80
2021/03/05 10:00:34;;;;;;;5.23;1.43;;;;;;;;;;5024602;28;20041;-80
2021/03/05 10:03:01;;;;;;;5.70;1.88;;;;;;;;;;5012645;28;20639;-79
2021/03/05 10:05:26;;;;;;;4.22;1.23;;;;;;;;;;4988093;28;20025;-81
2021/03/05 10:07:51;;;;;;;2.05;0.88;;;;;;;;;;5004873;28;20018;-79
2021/03/05 10:10:16;;;;;;;4.88;1.55;;;;;;;;;;4983320;28;20014;-81
2021/03/05 10:12:50;;;;;;;4.63;1.13;;;;;;;;;;5003021;28;20061;-80
2021/03/05 10:15:15;;;;;;;2.08;1.00;;;;;;;;;;5007680;28;20088;-80
2021/03/05 10:17:40;;;;;;;3.70;1.00;;;;;;;;;;5011526;28;20018;-81
2021/03/05 10:20:05;;;;;;;3.97;0.93;;;;;;;;;;5003399;28;20911;-80
2021/03/05 10:22:32;;;;;;;4.32;1.25;;;;;;;;;;5008971;28;20100;-80
2021/03/05 10:24:57;;;;;;;5.18;1.52;;;;;;;;;;4990754;28;20547;-80
2021/03/05 10:27:23;;;;;;;6.22;1.35;;;;;;;;;;5002179;28;20018;-80
2021/03/05 10:29:56;;;;;;;1.23;0.80;;;;;;;;;;5011726;28;20022;-80
2021/03/05 10:32:29;;;;;;;4.00;1.67;;;;;;;;;;5008855;28;20037;-81
2021/03/05 10:34:56;;;;;;;3.70;1.42;;;;;;;;;;4998652;28;20022;-81
2021/03/05 10:37:22;;;;;;;2.97;1.02;;;;;;;;;;5011904;28;20018;-81
2021/03/05 10:39:48;;;;;;;2.58;0.98;;;;;;;;;;4986705;28;20033;-80
2021/03/05 10:42:14;;;;;;;2.85;1.00;;;;;;;;;;5005403;28;20021;-80
2021/03/05 10:44:40;;;;;;;4.93;0.90;;;;;;;;;;5003089;28;20030;-80
2021/03/05 10:47:06;;;;;;;2.42;1.00;;;;;;;;;;5003472;28;20038;-80
2021/03/05 10:49:32;;;;;;;4.97;1.25;;;;;;;;;;5006027;28;20053;-81
2021/03/05 10:51:57;;;;;;;5.57;1.20;;;;;;;;;;4992336;28;20015;-81
2021/03/05 10:54:23;;;;;;;9.32;0.93;;;;;;;;;;5005443;28;20290;-81
2021/03/05 10:56:49;;;;;;;2.08;0.88;;;;;;;;;;5013670;28;20161;-81
2021/03/05 10:59:16;;;;;;;2.45;1.00;;;;;;;;;;4988703;28;20037;-80
2021/03/05 11:01:41;;;;;;;3.97;1.27;;;;;;;;;;5011634;28;20103;-80
2021/03/05 11:04:07;;;;;;;5.87;0.90;;;;;;;;;;5016523;28;20022;-80
2021/03/05 11:06:32;;;;;;;2.95;1.00;;;;;;;;;;5018472;28;20282;-80
2021/03/05 11:08:59;;;;;;;2.03;0.67;;;;;;;;;;5040450;28;20029;-80
2021/03/05 11:11:24;;;;;;;2.55;1.00;;;;;;;;;;5016002;28;20007;-80
2021/03/05 11:13:49;;;;;;;1.97;0.80;;;;;;;;;;5040409;28;20048;-81
2021/03/05 11:16:14;;;;;;;2.73;1.03;;;;;;;;;;5011513;28;20033;-81
2021/03/05 11:18:40;;;;;;;4.90;1.00;;;;;;;;;;4994270;28;20326;-80
2021/03/05 11:21:05;;;;;;;3.33;0.90;;;;;;;;;;5012261;28;20263;-80
2021/03/05 11:23:30;;;;;;;6.23;0.87;;;;;;;;;;5006800;28;20061;-80
2021/03/05 11:25:55;;;;;;;1.40;0.90;;;;;;;;;;5005205;28;20022;-80
2021/03/05 11:28:20;;;;;;;5.07;0.90;;;;;;;;;;4997847;28;20030;-82
2021/03/05 11:30:46;;;;;;;2.53;0.85;;;;;;;;;;5004772;28;20275;-81
2021/03/05 11:33:11;;;;;;;1.83;0.80;;;;;;;;;;4990598;28;20018;-82
2021/03/05 11:35:39;;;;;;;6.38;0.80;;;;;;;;;;4992260;28;20075;-80
2021/03/05 11:38:05;;;;;;;3.08;1.42;;;;;;;;;;5008942;28;20034;-80
2021/03/05 11:40:30;;;;;;;2.80;0.97;;;;;;;;;;5009274;28;20068;-80
2021/03/05 11:42:55;;;;;;;1.77;0.77;;;;;;;;;;4993586;28;20036;-80
2021/03/05 11:45:24;;;;;;;2.85;0.90;;;;;;;;;;5011361;28;20440;-81
2021/03/05 11:47:49;;;;;;;6.50;0.90;;;;;;;;;;5023429;28;20048;-82
2021/03/05 11:50:14;;;;;;;4.38;1.58;;;;;;;;;;5015144;28;20018;-81
2021/03/05 11:52:40;;;;;;;5.03;0.60;;;;;;;;;;5013220;28;20458;-82
2021/03/05 11:55:06;;;;;;;1.45;0.73;;;;;;;;;;4998292;28;20029;-83
2021/03/05 11:57:31;;;;;;;5.72;1.15;;;;;;;;;;4996009;28;20022;-83
2021/03/05 11:59:57;;;;;;;1.92;0.90;;;;;;;;;;5012970;28;20026;-81
2021/03/05 12:02:22;;;;;;;3.40;1.00;;;;;;;;;;5012209;28;20373;-82
2021/03/05 12:04:47;;;;;;;2.63;0.90;;;;;;;;;;5017644;28;20112;-82
2021/03/05 12:07:13;;;;;;;2.77;0.90;;;;;;;;;;5020653;28;20255;-82
2021/03/05 12:09:38;;;;;;;3.43;0.80;;;;;;;;;;5015918;28;20026;-82
2021/03/05 12:12:03;;;;;;;2.53;1.10;;;;;;;;;;5000439;28;20049;-82
2021/03/05 12:14:29;;;;;;;4.45;1.00;;;;;;;;;;5012493;28;20089;-82
2021/03/05 12:16:54;;;;;;;3.83;0.90;;;;;;;;;;4995242;28;20098;-81
2021/03/05 12:19:19;;;;;;;3.90;1.37;;;;;;;;;;5000397;28;20113;-82
2021/03/05 12:21:44;;;;;;;4.57;0.80;;;;;;;;;;5005626;28;20263;-81
2021/03/05 12:24:29;;;;;;;2.57;0.80;;;;;;;;;;5000533;28;20187;-82
2021/03/05 12:26:55;;;;;;;2.50;0.88;;;;;;;;;;5002821;28;20257;-81
2021/03/05 12:29:20;;;;;;;4.90;0.90;;;;;;;;;;5013143;28;20051;-82
2021/03/05 12:31:45;;;;;;;3.47;0.98;;;;;;;;;;4994201;28;20050;-81
2021/03/05 12:34:10;;;;;;;3.60;1.00;;;;;;;;;;5015921;28;20046;-81
2021/03/05 12:36:35;;;;;;;4.43;0.90;;;;;;;;;;5023014;28;20013;-82
2021/03/05 12:39:01;;;;;;;4.87;0.80;;;;;;;;;;5019089;28;20030;-82
2021/03/05 12:41:26;;;;;;;2.67;0.90;;;;;;;;;;4999571;28;20295;-82
2021/03/05 12:43:51;;;;;;;2.20;0.83;;;;;;;;;;5011412;28;20382;-81
2021/03/05 12:46:16;;;;;;;4.90;1.20;;;;;;;;;;5001037;28;20014;-82
2021/03/05 12:48:41;;;;;;;4.53;1.10;;;;;;;;;;4995535;28;20739;-82
2021/03/05 12:51:07;;;;;;;4.00;1.45;;;;;;;;;;5005248;28;20049;-80
2021/03/05 12:53:32;;;;;;;4.43;0.80;;;;;;;;;;5019121;28;20027;-80
2021/03/05 12:55:57;;;;;;;3.97;0.83;;;;;;;;;;4999301;28;20022;-80
2021/03/05 12:58:22;;;;;;;9.63;1.47;;;;;;;;;;4993397;28;20530;-79
2021/03/05 13:00:47;;;;;;;17.77;2.30;;;;;;;;;;4960973;28;20046;-80
2021/03/05 13:03:13;;;;;;;13.50;1.10;;;;;;;;;;4977728;28;20281;-80
2021/03/05 13:05:38;;;;;;;6.97;2.20;;;;;;;;;;4954272;28;20054;-79
2021/03/05 13:08:03;;;;;;;2.13;1.00;;;;;;;;;;4972638;28;20046;-80
2021/03/05 13:10:29;;;;;;;6.85;0.88;;;;;;;;;;4970040;28;20034;-80
2021/03/05 13:12:54;;;;;;;6.80;1.30;;;;;;;;;;4961658;28;20037;-79
2021/03/05 13:15:19;;;;;;;8.70;1.37;;;;;;;;;;4979121;28;20042;-80
2021/03/05 13:17:44;;;;;;;10.50;1.03;;;;;;;;;;4958759;28;20277;-80
2021/03/05 13:20:10;;;;;;;5.27;1.00;;;;;;;;;;4996980;28;20038;-81
2021/03/05 13:22:35;;;;;;;7.30;1.13;;;;;;;;;;5005538;28;20936;-80
2021/03/05 13:25:00;;;;;;;3.22;1.35;;;;;;;;;;5007588;28;20038;-81
2021/03/05 13:27:26;;;;;;;2.97;1.10;;;;;;;;;;5010276;28;20037;-80
2021/03/05 13:29:51;;;;;;;2.00;1.03;;;;;;;;;;5002693;28;20272;-81
2021/03/05 13:32:16;;;;;;;4.87;1.10;;;;;;;;;;5007699;28;20291;-80
2021/03/05 13:34:41;;;;;;;3.00;0.90;;;;;;;;;;5009319;28;20080;-80
2021/03/05 13:37:06;;;;;;;5.17;1.07;;;;;;;;;;5007325;28;20085;-80
2021/03/05 13:39:32;;;;;;;7.68;1.70;;;;;;;;;;4988022;28;20109;-81
2021/03/05 13:41:57;;;;;;;5.83;0.80;;;;;;;;;;5010757;28;20026;-80
2021/03/05 13:44:22;;;;;;;4.80;1.13;;;;;;;;;;5006363;28;20033;-80
2021/03/05 13:46:48;;;;;;;5.80;0.90;;;;;;;;;;5005319;28;20041;-79
2021/03/05 13:49:13;;;;;;;4.97;1.08;;;;;;;;;;5002179;28;20303;-79
2021/03/05 13:51:38;;;;;;;6.10;1.73;;;;;;;;;;5016857;28;20101;-80
2021/03/05 13:54:04;;;;;;;6.57;1.13;;;;;;;;;;5007474;28;20038;-80
2021/03/05 13:56:29;;;;;;;5.05;1.13;;;;;;;;;;5012424;28;20331;-80
2021/03/05 13:58:54;;;;;;;7.25;1.30;;;;;;;;;;5036158;28;20074;-79
2021/03/05 14:01:19;;;;;;;4.18;1.00;;;;;;;;;;5027323;28;20037;-79
2021/03/05 14:03:45;;;;;;;4.03;1.10;;;;;;;;;;5035669;28;20018;-80
2021/03/05 14:06:10;;;;;;;5.60;1.27;;;;;;;;;;5031993;28;20081;-79
2021/03/05 14:08:35;;;;;;;3.50;1.33;;;;;;;;;;5006121;28;20038;-80
2021/03/05 14:11:00;;;;;;;5.57;1.33;;;;;;;;;;5015775;28;20030;-80
2021/03/05 14:13:29;;;;;;;17.08;1.85;;;;;;;;;;5014300;28;20050;-79
2021/03/05 14:15:54;;;;;;;15.20;2.20;;;;;;;;;;5007344;28;20036;-77
2021/03/05 14:18:19;;;;;;;6.90;1.10;;;;;;;;;;5004637;28;20018;-77
2021/03/05 14:20:44;;;;;;;6.93;1.15;;;;;;;;;;5005709;28;20489;-81
2021/03/05 14:23:10;;;;;;;5.67;1.20;;;;;;;;;;5010774;28;20030;-79
2021/03/05 14:25:35;;;;;;;6.20;2.13;;;;;;;;;;4992297;28;20389;-79
2021/03/05 14:28:00;;;;;;;4.93;1.33;;;;;;;;;;4991398;28;20048;-79
2021/03/05 14:30:26;;;;;;;5.13;1.17;;;;;;;;;;4991587;28;20041;-80
2021/03/05 14:32:51;;;;;;;11.73;1.30;;;;;;;;;;4991519;28;20036;-80